createdAt,value
2023-03-17T00:02:30.837Z,101379.16
2023-03-17T00:05:35.103Z,101376.69
2023-03-17T00:08:54.109Z,101374.34
2023-03-17T00:12:00.067Z,101384.34
2023-03-17T00:15:15.771Z,101378.38
2023-03-17T00:18:19.953Z,101372.37
2023-03-17T00:21:38.839Z,101370.72
2023-03-17T00:24:40.922Z,101374.00
2023-03-17T00:27:59.775Z,101376.66
2023-03-17T00:31:11.600Z,101371.34
2023-03-17T00:34:30.166Z,101374.34
2023-03-17T00:37:46.763Z,101370.41
2023-03-17T00:41:17.985Z,101368.97
2023-03-17T00:44:27.698Z,101360.13
2023-03-17T00:47:36.542Z,101362.03
2023-03-17T00:50:44.717Z,101363.19
2023-03-17T00:54:00.862Z,101355.50
2023-03-17T00:57:09.706Z,101354.78
2023-03-17T01:00:31.068Z,101352.75
2023-03-17T01:03:46.686Z,101357.41
2023-03-17T01:06:55.496Z,101353.03
2023-03-17T01:10:19.765Z,101352.72
2023-03-17T01:13:29.111Z,101349.75
2023-03-17T01:16:45.001Z,101351.66
2023-03-17T01:19:47.329Z,101357.31
2023-03-17T01:23:02.769Z,101355.59
2023-03-17T01:26:11.415Z,101354.44
2023-03-17T01:29:19.721Z,101354.03
2023-03-17T01:32:34.784Z,101358.06
2023-03-17T01:35:46.812Z,101355.78
2023-03-17T01:39:02.334Z,101356.00
2023-03-17T01:42:11.854Z,101357.25
2023-03-17T01:45:40.281Z,101356.94
2023-03-17T01:49:08.718Z,101360.22
2023-03-17T01:52:21.769Z,101361.12
2023-03-17T01:55:36.749Z,101358.00
2023-03-17T01:58:49.038Z,101353.16
2023-03-17T02:02:02.761Z,101346.88
2023-03-17T02:05:20.745Z,101363.28
2023-03-17T02:08:28.783Z,101357.50
2023-03-17T02:11:38.658Z,101350.34
2023-03-17T02:14:46.781Z,101359.03
2023-03-17T02:18:02.761Z,101375.41
2023-03-17T02:25:02.756Z,101376.94
2023-03-17T02:28:10.835Z,101394.94
2023-03-17T02:31:25.850Z,101402.38
2023-03-17T02:34:34.624Z,101410.75
2023-03-17T02:37:43.816Z,101414.66
2023-03-17T02:40:58.761Z,101403.13
2023-03-17T02:44:07.931Z,101405.03
2023-03-17T02:47:17.804Z,101397.13
2023-03-17T02:50:29.123Z,101390.56
2023-03-17T02:53:37.796Z,101391.91
2023-03-17T02:56:52.837Z,101388.00
2023-03-17T02:59:55.006Z,101400.75
2023-03-17T03:03:10.898Z,101394.00
2023-03-17T03:06:22.921Z,101393.50
2023-03-17T03:09:37.785Z,101396.00
2023-03-17T03:12:46.781Z,101404.25
2023-03-17T03:16:01.907Z,101397.88
2023-03-17T03:19:03.910Z,101389.41
2023-03-17T03:22:19.089Z,101392.94
2023-03-17T03:25:20.882Z,101398.25
2023-03-17T03:28:35.791Z,101392.03
2023-03-17T03:31:50.928Z,101396.25
2023-03-17T03:34:53.194Z,101389.69
2023-03-17T03:38:15.798Z,101396.56
2023-03-17T03:41:24.731Z,101394.62
2023-03-17T03:44:33.031Z,101395.56
2023-03-17T03:47:47.822Z,101396.41
2023-03-17T03:50:57.867Z,101393.16
2023-03-17T03:54:12.798Z,101392.03
2023-03-17T03:57:14.670Z,101390.31
2023-03-17T04:00:30.096Z,101391.72
2023-03-17T04:03:38.805Z,101384.78
2023-03-17T04:06:53.862Z,101384.94
2023-03-17T04:10:01.797Z,101385.03
2023-03-17T04:13:17.040Z,101383.34
2023-03-17T04:16:18.865Z,101386.94
2023-03-17T04:22:48.844Z,101374.09
2023-03-17T04:26:03.794Z,101383.63
2023-03-17T04:29:11.809Z,101383.63
2023-03-17T04:32:27.258Z,101389.31
2023-03-17T04:35:35.854Z,101369.91
2023-03-17T04:38:51.449Z,101386.97
2023-03-17T04:42:06.031Z,101384.22
2023-03-17T04:45:18.327Z,101384.31
2023-03-17T04:48:32.850Z,101389.72
2023-03-17T04:51:42.805Z,101391.44
2023-03-17T04:54:51.353Z,101396.31
2023-03-17T04:57:59.825Z,101408.31
2023-03-17T05:01:14.850Z,101415.03
2023-03-17T05:04:28.867Z,101406.97
2023-03-17T05:07:49.084Z,101402.59
2023-03-17T05:11:05.946Z,101404.94
2023-03-17T05:14:14.870Z,101412.81
2023-03-17T05:17:23.550Z,101415.12
2023-03-17T05:20:32.336Z,101407.31
2023-03-17T05:23:46.831Z,101407.31
2023-03-17T05:27:01.854Z,101413.50
2023-03-17T05:30:11.242Z,101410.81
2023-03-17T05:33:25.901Z,101412.47
2023-03-17T05:36:34.814Z,101414.59
2023-03-17T05:39:50.146Z,101419.84
2023-03-17T05:43:04.905Z,101426.97
2023-03-17T05:46:07.148Z,101426.69
2023-03-17T05:49:22.884Z,101423.28
2023-03-17T05:52:31.620Z,101417.97
2023-03-17T05:55:39.849Z,101417.09
2023-03-17T05:58:54.912Z,101418.56
2023-03-17T06:02:05.906Z,101425.91
2023-03-17T06:05:21.340Z,101420.59
2023-03-17T06:08:23.384Z,101432.50
2023-03-17T06:11:38.846Z,101424.16
2023-03-17T06:14:48.585Z,101415.50
2023-03-17T06:17:59.174Z,101415.91
2023-03-17T06:21:14.881Z,101418.38
2023-03-17T06:24:23.361Z,101426.81
2023-03-17T06:27:38.869Z,101431.50
2023-03-17T06:30:53.990Z,101435.94
2023-03-17T06:34:25.243Z,101435.75
2023-03-17T06:37:27.824Z,101435.62
2023-03-17T06:40:49.893Z,101431.47
2023-03-17T06:44:04.930Z,101439.47
2023-03-17T06:47:19.909Z,101442.91
2023-03-17T06:53:41.861Z,101437.34
2023-03-17T06:57:15.916Z,101447.53
2023-03-17T07:00:21.465Z,101449.03
2023-03-17T07:03:38.444Z,101443.72
2023-03-17T07:07:20.958Z,101434.91
2023-03-17T07:10:29.530Z,101456.41
2023-03-17T07:13:43.850Z,101461.75
2023-03-17T07:16:57.902Z,101479.38
2023-03-17T07:20:13.947Z,101463.94
2023-03-17T07:23:29.125Z,101474.63
2023-03-17T07:26:31.680Z,101460.31
2023-03-17T07:29:47.994Z,101465.78
2023-03-17T07:32:49.955Z,101468.16
2023-03-17T07:36:05.008Z,101474.37
2023-03-17T07:39:14.469Z,101480.78
2023-03-17T07:42:52.922Z,101473.44
2023-03-17T07:45:55.357Z,101471.63
2023-03-17T07:49:09.979Z,101479.31
2023-03-17T07:52:13.089Z,101474.59
2023-03-17T07:55:29.999Z,101479.50
2023-03-17T07:58:57.015Z,101472.22
2023-03-17T08:02:14.132Z,101469.81
2023-03-17T08:05:23.055Z,101475.91
2023-03-17T08:08:32.006Z,101473.84
2023-03-17T08:11:43.119Z,101466.66
2023-03-17T08:14:54.007Z,101462.53
2023-03-17T08:18:11.884Z,101446.50
2023-03-17T08:21:20.718Z,101464.22
2023-03-17T08:24:37.329Z,101447.88
2023-03-17T08:27:53.906Z,101454.94
2023-03-17T08:38:13.044Z,101443.56
2023-03-17T08:41:49.855Z,101442.63
2023-03-17T08:59:29.117Z,101447.63
2023-03-17T09:06:32.716Z,101456.00
2023-03-17T09:20:16.590Z,101438.41
2023-03-17T09:23:46.886Z,101443.50
2023-03-17T09:34:04.390Z,101441.34
2023-03-17T09:37:16.664Z,101419.87
2023-03-17T10:03:14.047Z,101405.16
2023-03-17T10:11:01.506Z,101401.62
2023-03-17T10:22:57.133Z,101398.66
2023-03-17T10:26:46.218Z,101387.03
2023-03-17T10:41:19.758Z,101373.72
2023-03-17T10:45:17.542Z,101373.56
2023-03-17T10:49:22.197Z,101366.13
2023-03-17T11:05:06.907Z,101354.69
2023-03-17T11:08:25.907Z,101345.28
2023-03-17T11:11:40.176Z,101333.75
2023-03-17T11:14:56.929Z,101332.00
2023-03-17T11:18:01.443Z,101325.13
2023-03-17T11:21:22.947Z,101328.47
2023-03-17T11:24:34.130Z,101329.91
2023-03-17T11:27:51.946Z,101319.28
2023-03-17T11:31:16.818Z,101317.16
2023-03-17T11:34:45.253Z,101318.34
2023-03-17T11:38:21.382Z,101310.84
2023-03-17T11:41:56.219Z,101293.53
2023-03-17T11:45:33.462Z,101293.38
2023-03-17T11:49:17.953Z,101280.34
2023-03-17T11:52:44.930Z,101272.31
2023-03-17T11:56:00.444Z,101257.25
2023-03-17T11:59:12.974Z,101258.47
2023-03-17T12:02:44.936Z,101248.91
2023-03-17T12:05:52.227Z,101263.97
2023-03-17T12:09:15.027Z,101253.09
2023-03-17T12:12:28.240Z,101225.88
2023-03-17T12:15:53.208Z,101222.09
2023-03-17T12:19:21.434Z,101215.84
2023-03-17T12:22:37.498Z,101216.66
2023-03-17T12:26:03.278Z,101223.53
2023-03-17T12:29:20.588Z,101227.25
2023-03-17T12:32:35.517Z,101211.03
